FDB1113 OMDB-OSDI
Flight info
| Callsign | FDB1113 |
|---|---|
| Flight time | 3h 42m |
| Altitude | 34000 |
| Route | ANVI7F ANVIX R401 GIDIS G783 RIGIL M628 AMBAG M321 KSA T503 OVANO L768 KUMLO SEIR1C |
| Aircraft | B38M/M-SDE1FGHILORVWXY/HB1 |
Departure
| Time | 2026-04-17 07:46 |
|---|---|
| Airport | Dubai International Airport (OMDB) |
Arrival
| Time | 2026-04-17 11:28 |
|---|---|
| Airport | Damascus International Airport (OSDI) |
| Time | Latitude | Longitude | Altitude | Speed | Heading |
|---|---|---|---|---|---|
| 2026-04-17 07:17 | 25.26300 | 55.36091 | 26 ft | 0 kts | 31° |
| 2026-04-17 07:34 | 25.26299 | 55.36091 | 24 ft | 1 kts | 31° |
| 2026-04-17 07:34 | 25.26278 | 55.36077 | 28 ft | 4 kts | 31° |
| 2026-04-17 07:34 | 25.26255 | 55.36062 | 27 ft | 4 kts | 34° |
| 2026-04-17 07:34 | 25.26237 | 55.36042 | 28 ft | 4 kts | 67° |
| 2026-04-17 07:35 | 25.26236 | 55.36016 | 27 ft | 3 kts | 118° |
| 2026-04-17 07:35 | 25.26247 | 55.35996 | 28 ft | 4 kts | 121° |
| 2026-04-17 07:35 | 25.26249 | 55.35992 | 26 ft | 0 kts | 121° |
| 2026-04-17 07:38 | 25.26249 | 55.35993 | 27 ft | 1 kts | 121° |
| 2026-04-17 07:38 | 25.26241 | 55.36007 | 26 ft | 4 kts | 121° |
| 2026-04-17 07:39 | 25.26216 | 55.36052 | 25 ft | 10 kts | 121° |
| 2026-04-17 07:39 | 25.26164 | 55.36144 | 25 ft | 18 kts | 122° |
| 2026-04-17 07:39 | 25.26087 | 55.36280 | 26 ft | 23 kts | 122° |
| 2026-04-17 07:39 | 25.26000 | 55.36434 | 25 ft | 25 kts | 121° |
| 2026-04-17 07:40 | 25.25907 | 55.36600 | 25 ft | 26 kts | 122° |
| 2026-04-17 07:40 | 25.25808 | 55.36776 | 25 ft | 28 kts | 122° |
| 2026-04-17 07:40 | 25.25704 | 55.36962 | 26 ft | 29 kts | 122° |
| 2026-04-17 07:40 | 25.25594 | 55.37155 | 25 ft | 30 kts | 121° |
| 2026-04-17 07:41 | 25.25481 | 55.37357 | 26 ft | 31 kts | 122° |
| 2026-04-17 07:41 | 25.25363 | 55.37566 | 27 ft | 33 kts | 121° |
| 2026-04-17 07:41 | 25.25248 | 55.37772 | 25 ft | 31 kts | 122° |
| 2026-04-17 07:41 | 25.25131 | 55.37978 | 24 ft | 32 kts | 121° |
| 2026-04-17 07:42 | 25.25034 | 55.38150 | 23 ft | 14 kts | 127° |
| 2026-04-17 07:42 | 25.24955 | 55.38150 | 25 ft | 9 kts | 211° |
| 2026-04-17 07:42 | 25.24904 | 55.38116 | 25 ft | 7 kts | 211° |
| 2026-04-17 07:42 | 25.24903 | 55.38115 | 25 ft | 0 kts | 211° |
| 2026-04-17 07:44 | 25.24902 | 55.38115 | 25 ft | 0 kts | 211° |
| 2026-04-17 07:44 | 25.24895 | 55.38110 | 25 ft | 2 kts | 211° |
| 2026-04-17 07:44 | 25.24869 | 55.38093 | 26 ft | 7 kts | 211° |
| 2026-04-17 07:45 | 25.24823 | 55.38040 | 28 ft | 13 kts | 251° |
| 2026-04-17 07:45 | 25.24853 | 55.37941 | 28 ft | 10 kts | 302° |
| 2026-04-17 07:45 | 25.24862 | 55.37926 | 28 ft | 5 kts | 302° |
| 2026-04-17 07:45 | 25.24994 | 55.37688 | 28 ft | 72 kts | 301° |
| 2026-04-17 07:46 | 25.25369 | 55.37013 | 28 ft | 132 kts | 302° |
| 2026-04-17 07:46 | 25.25936 | 55.36015 | 135 ft | 167 kts | 297° |
| 2026-04-17 07:46 | 25.26513 | 55.34913 | 799 ft | 168 kts | 298° |
| 2026-04-17 07:46 | 25.27114 | 55.33835 | 1650 ft | 163 kts | 298° |
| 2026-04-17 07:47 | 25.27745 | 55.32703 | 2060 ft | 183 kts | 297° |
| 2026-04-17 07:47 | 25.28451 | 55.31441 | 2475 ft | 203 kts | 298° |
| 2026-04-17 07:47 | 25.29074 | 55.29979 | 2921 ft | 218 kts | 279° |
| 2026-04-17 07:47 | 25.28922 | 55.28338 | 3803 ft | 219 kts | 253° |
| 2026-04-17 07:48 | 25.28316 | 55.26772 | 4587 ft | 223 kts | 249° |
| 2026-04-17 07:48 | 25.27683 | 55.25195 | 5379 ft | 228 kts | 250° |
| 2026-04-17 07:48 | 25.27028 | 55.23600 | 6131 ft | 231 kts | 250° |
| 2026-04-17 07:48 | 25.26349 | 55.21965 | 6864 ft | 235 kts | 249° |
| 2026-04-17 07:49 | 25.25658 | 55.20318 | 7591 ft | 238 kts | 249° |
| 2026-04-17 07:49 | 25.24939 | 55.18657 | 8311 ft | 243 kts | 244° |
| 2026-04-17 07:49 | 25.24221 | 55.17658 | 8634 ft | 259 kts | 224° |
| 2026-04-17 07:49 | 25.21943 | 55.16698 | 9656 ft | 274 kts | 185° |
| 2026-04-17 07:50 | 25.20673 | 55.16845 | 10010 ft | 287 kts | 168° |
| 2026-04-17 07:50 | 25.18287 | 55.18341 | 10571 ft | 313 kts | 136° |
| 2026-04-17 07:50 | 25.17367 | 55.19619 | 10938 ft | 320 kts | 121° |
| 2026-04-17 07:50 | 25.16288 | 55.21802 | 11630 ft | 324 kts | 119° |
| 2026-04-17 07:51 | 25.15219 | 55.23982 | 12366 ft | 329 kts | 119° |
| 2026-04-17 07:51 | 25.14132 | 55.26220 | 13125 ft | 333 kts | 119° |
| 2026-04-17 07:51 | 25.13031 | 55.28495 | 13923 ft | 336 kts | 120° |
| 2026-04-17 07:51 | 25.11929 | 55.30782 | 14662 ft | 339 kts | 120° |
| 2026-04-17 07:52 | 25.10827 | 55.33102 | 15371 ft | 343 kts | 116° |
| 2026-04-17 07:52 | 25.09828 | 55.35519 | 16077 ft | 347 kts | 116° |
| 2026-04-17 07:52 | 25.08817 | 55.37958 | 16767 ft | 351 kts | 116° |
| 2026-04-17 07:52 | 25.07789 | 55.40418 | 17451 ft | 355 kts | 116° |
| 2026-04-17 07:53 | 25.06788 | 55.42953 | 17864 ft | 369 kts | 114° |
| 2026-04-17 07:53 | 25.05763 | 55.45630 | 18039 ft | 388 kts | 114° |
| 2026-04-17 07:53 | 25.04686 | 55.48426 | 18239 ft | 404 kts | 114° |
| 2026-04-17 07:53 | 25.03567 | 55.51316 | 18561 ft | 413 kts | 114° |
| 2026-04-17 07:54 | 25.02435 | 55.54234 | 19164 ft | 413 kts | 115° |
| 2026-04-17 07:54 | 25.01098 | 55.57002 | 19678 ft | 415 kts | 122° |
| 2026-04-17 07:54 | 24.99624 | 55.59756 | 20220 ft | 418 kts | 122° |
| 2026-04-17 07:54 | 24.98137 | 55.62519 | 20751 ft | 420 kts | 122° |
| 2026-04-17 07:55 | 24.96637 | 55.65298 | 21294 ft | 423 kts | 122° |
| 2026-04-17 07:55 | 24.95126 | 55.68094 | 21817 ft | 425 kts | 122° |
| 2026-04-17 07:55 | 24.93493 | 55.70810 | 22329 ft | 426 kts | 128° |
| 2026-04-17 07:55 | 24.91724 | 55.73450 | 22829 ft | 429 kts | 128° |
| 2026-04-17 07:56 | 24.89960 | 55.76120 | 23337 ft | 432 kts | 127° |
| 2026-04-17 07:56 | 24.88196 | 55.78811 | 23785 ft | 435 kts | 127° |
| 2026-04-17 07:56 | 24.86418 | 55.81533 | 24165 ft | 438 kts | 127° |
| 2026-04-17 07:56 | 24.84627 | 55.84268 | 24549 ft | 442 kts | 128° |
| 2026-04-17 07:57 | 24.82811 | 55.86961 | 24949 ft | 444 kts | 128° |
| 2026-04-17 07:57 | 24.80865 | 55.89605 | 25333 ft | 445 kts | 137° |
| 2026-04-17 07:57 | 24.78412 | 55.91660 | 25698 ft | 444 kts | 154° |
| 2026-04-17 07:57 | 24.75559 | 55.92938 | 26024 ft | 443 kts | 169° |
| 2026-04-17 07:58 | 24.72519 | 55.93359 | 26412 ft | 440 kts | 181° |
| 2026-04-17 07:58 | 24.69440 | 55.93426 | 26747 ft | 444 kts | 182° |
| 2026-04-17 07:58 | 24.66342 | 55.93425 | 27119 ft | 446 kts | 183° |
| 2026-04-17 07:58 | 24.63234 | 55.93295 | 27466 ft | 446 kts | 191° |
| 2026-04-17 07:59 | 24.60251 | 55.92406 | 27802 ft | 443 kts | 207° |
| 2026-04-17 07:59 | 24.57618 | 55.90689 | 28106 ft | 441 kts | 220° |
| 2026-04-17 07:59 | 24.55226 | 55.88552 | 28420 ft | 444 kts | 222° |
| 2026-04-17 07:59 | 24.52855 | 55.86365 | 28765 ft | 446 kts | 223° |
| 2026-04-17 08:00 | 24.50525 | 55.84170 | 29120 ft | 448 kts | 223° |
| 2026-04-17 08:00 | 24.48162 | 55.81919 | 29455 ft | 451 kts | 224° |
| 2026-04-17 08:00 | 24.45796 | 55.79652 | 29789 ft | 453 kts | 224° |
| 2026-04-17 08:00 | 24.43413 | 55.77364 | 30116 ft | 455 kts | 224° |
| 2026-04-17 08:01 | 24.41023 | 55.75068 | 30397 ft | 458 kts | 224° |
| 2026-04-17 08:01 | 24.38623 | 55.72764 | 30714 ft | 459 kts | 224° |
| 2026-04-17 08:01 | 24.36211 | 55.70448 | 31042 ft | 460 kts | 224° |
| 2026-04-17 08:01 | 24.33808 | 55.68143 | 31433 ft | 459 kts | 223° |
| 2026-04-17 08:02 | 24.31407 | 55.65840 | 31859 ft | 458 kts | 223° |
| 2026-04-17 08:02 | 24.29010 | 55.63543 | 32308 ft | 456 kts | 223° |
| 2026-04-17 08:02 | 24.26495 | 55.61428 | 32727 ft | 457 kts | 212° |
| 2026-04-17 08:02 | 24.23601 | 55.60076 | 33199 ft | 459 kts | 199° |
| 2026-04-17 08:03 | 24.20538 | 55.59093 | 33597 ft | 458 kts | 199° |
| 2026-04-17 08:03 | 24.17470 | 55.58125 | 33956 ft | 458 kts | 199° |
| 2026-04-17 08:03 | 24.11354 | 55.56263 | 33968 ft | 453 kts | 198° |
| 2026-04-17 08:04 | 24.05266 | 55.54441 | 33973 ft | 453 kts | 198° |
| 2026-04-17 08:04 | 23.99209 | 55.52635 | 33978 ft | 454 kts | 198° |
| 2026-04-17 08:05 | 23.93120 | 55.50825 | 33965 ft | 452 kts | 198° |
| 2026-04-17 08:05 | 23.87045 | 55.49021 | 33971 ft | 452 kts | 198° |
| 2026-04-17 08:06 | 23.80974 | 55.47217 | 33975 ft | 452 kts | 198° |
| 2026-04-17 08:06 | 23.74894 | 55.45412 | 33973 ft | 452 kts | 198° |
| 2026-04-17 08:07 | 23.68823 | 55.43612 | 33969 ft | 453 kts | 198° |
| 2026-04-17 08:07 | 23.62734 | 55.41808 | 33964 ft | 453 kts | 198° |
| 2026-04-17 08:08 | 23.56653 | 55.40008 | 33969 ft | 453 kts | 198° |
| 2026-04-17 08:08 | 23.50575 | 55.38209 | 33981 ft | 453 kts | 198° |
| 2026-04-17 08:09 | 23.44493 | 55.36410 | 33981 ft | 453 kts | 198° |
| 2026-04-17 08:09 | 23.38448 | 55.34624 | 33975 ft | 454 kts | 198° |
| 2026-04-17 08:10 | 23.32344 | 55.32822 | 33976 ft | 454 kts | 198° |
| 2026-04-17 08:10 | 23.26246 | 55.31024 | 33976 ft | 454 kts | 198° |
| 2026-04-17 08:11 | 23.20153 | 55.29228 | 33975 ft | 454 kts | 198° |
| 2026-04-17 08:11 | 23.14052 | 55.27432 | 33962 ft | 454 kts | 198° |
| 2026-04-17 08:12 | 23.08048 | 55.25344 | 33959 ft | 449 kts | 212° |
| 2026-04-17 08:12 | 23.05520 | 55.23400 | 33975 ft | 443 kts | 227° |
| 2026-04-17 08:12 | 23.03556 | 55.20855 | 33978 ft | 439 kts | 239° |
| 2026-04-17 08:13 | 23.02225 | 55.17935 | 33964 ft | 436 kts | 252° |
| 2026-04-17 08:13 | 23.01360 | 55.14782 | 33984 ft | 437 kts | 256° |
| 2026-04-17 08:14 | 22.99236 | 55.05170 | 33977 ft | 437 kts | 258° |
| 2026-04-17 08:14 | 22.97941 | 54.98715 | 33980 ft | 436 kts | 259° |
| 2026-04-17 08:15 | 22.96677 | 54.92338 | 33975 ft | 434 kts | 259° |
| 2026-04-17 08:15 | 22.95408 | 54.85934 | 33977 ft | 434 kts | 259° |
| 2026-04-17 08:16 | 22.94134 | 54.79523 | 33977 ft | 434 kts | 259° |
| 2026-04-17 08:16 | 22.92860 | 54.73123 | 33970 ft | 434 kts | 259° |
| 2026-04-17 08:17 | 22.91580 | 54.66710 | 33973 ft | 434 kts | 259° |
| 2026-04-17 08:17 | 22.90306 | 54.60338 | 33982 ft | 435 kts | 259° |
| 2026-04-17 08:18 | 22.89021 | 54.53925 | 33983 ft | 435 kts | 259° |
| 2026-04-17 08:18 | 22.87734 | 54.47521 | 33977 ft | 435 kts | 259° |
| 2026-04-17 08:19 | 22.86445 | 54.41114 | 33983 ft | 435 kts | 259° |
| 2026-04-17 08:19 | 22.85150 | 54.34697 | 33982 ft | 435 kts | 259° |
| 2026-04-17 08:20 | 22.83864 | 54.28332 | 33982 ft | 435 kts | 259° |
| 2026-04-17 08:20 | 22.82564 | 54.21921 | 33982 ft | 435 kts | 259° |
| 2026-04-17 08:21 | 22.81265 | 54.15521 | 33982 ft | 435 kts | 259° |
| 2026-04-17 08:21 | 22.79961 | 54.09107 | 33981 ft | 435 kts | 259° |
| 2026-04-17 08:22 | 22.78662 | 54.02737 | 33983 ft | 435 kts | 259° |
| 2026-04-17 08:22 | 22.78183 | 53.96272 | 34002 ft | 431 kts | 272° |
| 2026-04-17 08:23 | 22.78344 | 53.89763 | 33988 ft | 431 kts | 272° |
| 2026-04-17 08:23 | 22.78549 | 53.83255 | 33990 ft | 431 kts | 272° |
| 2026-04-17 08:24 | 22.78761 | 53.76801 | 33988 ft | 432 kts | 272° |
| 2026-04-17 08:24 | 22.78973 | 53.70299 | 33987 ft | 431 kts | 272° |
| 2026-04-17 08:25 | 22.79182 | 53.63812 | 33988 ft | 431 kts | 272° |
| 2026-04-17 08:25 | 22.79388 | 53.57323 | 33987 ft | 431 kts | 272° |
| 2026-04-17 08:26 | 22.79592 | 53.50831 | 33991 ft | 431 kts | 272° |
| 2026-04-17 08:26 | 22.79793 | 53.44334 | 33993 ft | 431 kts | 272° |
| 2026-04-17 08:27 | 22.79992 | 53.37841 | 33993 ft | 431 kts | 272° |
| 2026-04-17 08:27 | 22.80187 | 53.31379 | 33994 ft | 431 kts | 272° |
| 2026-04-17 08:28 | 22.80380 | 53.24888 | 33989 ft | 431 kts | 272° |
| 2026-04-17 08:28 | 22.80571 | 53.18393 | 33991 ft | 429 kts | 272° |
| 2026-04-17 08:29 | 22.80758 | 53.11920 | 33994 ft | 430 kts | 272° |
| 2026-04-17 08:29 | 22.80942 | 53.05492 | 33996 ft | 429 kts | 272° |
| 2026-04-17 08:30 | 22.81124 | 52.99015 | 34011 ft | 429 kts | 272° |
| 2026-04-17 08:30 | 22.81303 | 52.92553 | 34000 ft | 429 kts | 272° |
| 2026-04-17 08:31 | 22.81480 | 52.86078 | 33996 ft | 429 kts | 272° |
| 2026-04-17 08:31 | 22.81654 | 52.79614 | 34001 ft | 429 kts | 272° |
| 2026-04-17 08:32 | 22.81826 | 52.73140 | 34004 ft | 428 kts | 271° |
| 2026-04-17 08:32 | 22.81994 | 52.66707 | 34001 ft | 427 kts | 271° |
| 2026-04-17 08:33 | 22.82159 | 52.60304 | 34002 ft | 427 kts | 271° |
| 2026-04-17 08:33 | 22.82324 | 52.53867 | 34001 ft | 427 kts | 271° |
| 2026-04-17 08:34 | 22.82474 | 52.47435 | 34002 ft | 425 kts | 271° |
| 2026-04-17 08:34 | 22.82606 | 52.41084 | 34000 ft | 424 kts | 271° |
| 2026-04-17 08:35 | 22.82738 | 52.34698 | 34005 ft | 424 kts | 271° |
| 2026-04-17 08:35 | 22.82868 | 52.28307 | 33995 ft | 424 kts | 271° |
| 2026-04-17 08:36 | 22.82995 | 52.21917 | 33999 ft | 423 kts | 271° |
| 2026-04-17 08:36 | 22.83120 | 52.15525 | 34005 ft | 423 kts | 271° |
| 2026-04-17 08:37 | 22.83241 | 52.09194 | 34012 ft | 423 kts | 271° |
| 2026-04-17 08:37 | 22.83361 | 52.02799 | 34002 ft | 425 kts | 271° |
| 2026-04-17 08:38 | 22.83478 | 51.96394 | 34005 ft | 424 kts | 271° |
| 2026-04-17 08:38 | 22.83592 | 51.89999 | 34003 ft | 424 kts | 271° |
| 2026-04-17 08:39 | 22.83686 | 51.84668 | 34005 ft | 424 kts | 271° |
| 2026-04-17 08:39 | 22.83795 | 51.78276 | 34003 ft | 424 kts | 271° |
| 2026-04-17 08:40 | 22.83903 | 51.71884 | 34004 ft | 423 kts | 271° |
| 2026-04-17 08:40 | 22.84007 | 51.65516 | 34005 ft | 423 kts | 271° |
| 2026-04-17 08:41 | 22.84109 | 51.59176 | 34005 ft | 423 kts | 271° |
| 2026-04-17 08:41 | 22.84209 | 51.52805 | 34005 ft | 421 kts | 271° |
| 2026-04-17 08:42 | 22.84335 | 51.46476 | 34000 ft | 420 kts | 275° |
| 2026-04-17 08:42 | 22.84799 | 51.40161 | 34004 ft | 420 kts | 275° |
| 2026-04-17 08:43 | 22.85225 | 51.33842 | 34008 ft | 420 kts | 274° |
| 2026-04-17 08:43 | 22.85643 | 51.27544 | 34004 ft | 418 kts | 274° |
| 2026-04-17 08:44 | 22.86056 | 51.21259 | 34005 ft | 418 kts | 274° |
| 2026-04-17 08:44 | 22.86468 | 51.14963 | 34007 ft | 418 kts | 274° |
| 2026-04-17 08:45 | 22.86888 | 51.08732 | 34006 ft | 418 kts | 275° |
| 2026-04-17 08:45 | 22.87310 | 51.02444 | 34006 ft | 417 kts | 274° |
| 2026-04-17 08:46 | 22.87730 | 50.96161 | 34011 ft | 417 kts | 274° |
| 2026-04-17 08:46 | 22.88147 | 50.89880 | 34008 ft | 417 kts | 274° |
| 2026-04-17 08:47 | 22.88561 | 50.83601 | 34009 ft | 417 kts | 274° |
| 2026-04-17 08:47 | 22.88971 | 50.77352 | 34013 ft | 417 kts | 274° |
| 2026-04-17 08:48 | 22.89380 | 50.71071 | 34012 ft | 417 kts | 274° |
| 2026-04-17 08:48 | 22.89787 | 50.64792 | 34008 ft | 417 kts | 274° |
| 2026-04-17 08:49 | 22.90191 | 50.58518 | 34028 ft | 417 kts | 274° |
| 2026-04-17 08:49 | 22.90594 | 50.52223 | 34023 ft | 419 kts | 274° |
| 2026-04-17 08:50 | 22.90994 | 50.45932 | 34025 ft | 418 kts | 274° |
| 2026-04-17 08:50 | 22.91392 | 50.39630 | 34019 ft | 418 kts | 274° |
| 2026-04-17 08:51 | 22.91788 | 50.33342 | 34018 ft | 418 kts | 274° |
| 2026-04-17 08:51 | 22.92180 | 50.27054 | 34022 ft | 418 kts | 274° |
| 2026-04-17 08:52 | 22.92570 | 50.20766 | 34020 ft | 418 kts | 274° |
| 2026-04-17 08:52 | 22.92954 | 50.14532 | 34020 ft | 414 kts | 274° |
| 2026-04-17 08:53 | 22.93335 | 50.08308 | 34021 ft | 413 kts | 274° |
| 2026-04-17 08:53 | 22.93715 | 50.02067 | 34021 ft | 414 kts | 274° |
| 2026-04-17 08:54 | 22.94092 | 49.95834 | 34019 ft | 413 kts | 274° |
| 2026-04-17 08:54 | 22.94464 | 49.89630 | 34024 ft | 411 kts | 274° |
| 2026-04-17 08:55 | 22.94832 | 49.83456 | 34023 ft | 414 kts | 274° |
| 2026-04-17 08:55 | 22.95202 | 49.77217 | 34021 ft | 414 kts | 274° |
| 2026-04-17 08:56 | 22.95569 | 49.70981 | 34023 ft | 413 kts | 274° |
| 2026-04-17 08:56 | 22.95932 | 49.64771 | 34018 ft | 412 kts | 274° |
| 2026-04-17 08:57 | 22.96293 | 49.58556 | 34021 ft | 412 kts | 274° |
| 2026-04-17 08:57 | 22.96651 | 49.52347 | 34016 ft | 412 kts | 274° |
| 2026-04-17 08:58 | 22.97006 | 49.46155 | 34020 ft | 410 kts | 274° |
| 2026-04-17 08:58 | 22.97355 | 49.40021 | 34019 ft | 410 kts | 274° |
| 2026-04-17 08:59 | 22.97704 | 49.33844 | 34019 ft | 410 kts | 274° |
| 2026-04-17 08:59 | 22.98051 | 49.27677 | 34021 ft | 408 kts | 274° |
| 2026-04-17 09:00 | 22.98391 | 49.21554 | 34029 ft | 406 kts | 274° |
| 2026-04-17 09:00 | 22.98734 | 49.15388 | 34030 ft | 410 kts | 274° |
| 2026-04-17 09:01 | 22.99075 | 49.09204 | 34024 ft | 410 kts | 273° |
| 2026-04-17 09:01 | 22.99410 | 49.03076 | 34017 ft | 407 kts | 274° |
| 2026-04-17 09:02 | 22.99853 | 48.96958 | 34020 ft | 406 kts | 275° |
| 2026-04-17 09:02 | 23.00354 | 48.90842 | 34018 ft | 406 kts | 275° |
| 2026-04-17 09:03 | 23.00846 | 48.84733 | 34020 ft | 406 kts | 275° |
| 2026-04-17 09:03 | 23.01336 | 48.78620 | 34018 ft | 406 kts | 275° |
| 2026-04-17 09:04 | 23.01822 | 48.72537 | 34016 ft | 406 kts | 275° |
| 2026-04-17 09:04 | 23.02307 | 48.66425 | 34019 ft | 406 kts | 275° |
| 2026-04-17 09:05 | 23.02790 | 48.60316 | 34019 ft | 404 kts | 275° |
| 2026-04-17 09:05 | 23.03270 | 48.54204 | 34025 ft | 408 kts | 275° |
| 2026-04-17 09:06 | 23.03749 | 48.48089 | 34010 ft | 409 kts | 275° |
| 2026-04-17 09:06 | 23.04229 | 48.41928 | 34021 ft | 408 kts | 275° |
| 2026-04-17 09:07 | 23.04701 | 48.35828 | 34021 ft | 404 kts | 275° |
| 2026-04-17 09:07 | 23.05167 | 48.29778 | 34024 ft | 405 kts | 275° |
| 2026-04-17 09:08 | 23.05634 | 48.23693 | 34023 ft | 405 kts | 275° |
| 2026-04-17 09:08 | 23.06098 | 48.17600 | 34023 ft | 404 kts | 275° |
| 2026-04-17 09:09 | 23.06561 | 48.11510 | 34024 ft | 404 kts | 275° |
| 2026-04-17 09:09 | 23.07020 | 48.05425 | 34027 ft | 404 kts | 275° |
| 2026-04-17 09:10 | 23.07706 | 47.96290 | 34043 ft | 405 kts | 275° |
| 2026-04-17 09:10 | 23.08157 | 47.90241 | 34032 ft | 404 kts | 275° |
| 2026-04-17 09:11 | 23.08609 | 47.84150 | 34036 ft | 405 kts | 275° |
| 2026-04-17 09:11 | 23.09685 | 47.78188 | 34011 ft | 405 kts | 294° |
| 2026-04-17 09:12 | 23.11259 | 47.75624 | 34047 ft | 412 kts | 308° |
| 2026-04-17 09:12 | 23.13352 | 47.73467 | 34047 ft | 417 kts | 313° |
| 2026-04-17 09:12 | 23.17760 | 47.69342 | 34036 ft | 419 kts | 315° |
| 2026-04-17 09:13 | 23.22246 | 47.65287 | 34050 ft | 419 kts | 315° |
| 2026-04-17 09:13 | 23.26747 | 47.61257 | 34034 ft | 419 kts | 315° |
| 2026-04-17 09:14 | 23.31215 | 47.57260 | 34036 ft | 418 kts | 315° |
| 2026-04-17 09:14 | 23.35711 | 47.53235 | 34033 ft | 417 kts | 315° |
| 2026-04-17 09:15 | 23.40201 | 47.49212 | 34054 ft | 418 kts | 315° |
| 2026-04-17 09:15 | 23.44692 | 47.45183 | 34042 ft | 418 kts | 315° |
| 2026-04-17 09:16 | 23.49177 | 47.41157 | 34044 ft | 418 kts | 315° |
| 2026-04-17 09:16 | 23.53637 | 47.37150 | 34048 ft | 418 kts | 315° |
| 2026-04-17 09:17 | 23.58111 | 47.33125 | 34061 ft | 416 kts | 315° |
| 2026-04-17 09:17 | 23.62593 | 47.29090 | 34046 ft | 416 kts | 315° |
| 2026-04-17 09:18 | 23.67055 | 47.25071 | 34047 ft | 416 kts | 315° |
| 2026-04-17 09:18 | 23.71528 | 47.21037 | 34050 ft | 416 kts | 315° |
| 2026-04-17 09:19 | 23.75962 | 47.17034 | 34061 ft | 416 kts | 315° |
| 2026-04-17 09:19 | 23.80424 | 47.13002 | 34053 ft | 416 kts | 315° |
| 2026-04-17 09:20 | 23.84888 | 47.08965 | 34049 ft | 417 kts | 315° |
| 2026-04-17 09:20 | 23.89360 | 47.04917 | 34054 ft | 417 kts | 315° |
| 2026-04-17 09:21 | 23.93829 | 47.00868 | 34056 ft | 416 kts | 315° |
| 2026-04-17 09:21 | 23.98260 | 46.96850 | 34055 ft | 416 kts | 315° |
| 2026-04-17 09:22 | 24.02712 | 46.92809 | 34054 ft | 414 kts | 315° |
| 2026-04-17 09:22 | 24.07144 | 46.88782 | 34060 ft | 414 kts | 315° |
| 2026-04-17 09:23 | 24.11576 | 46.84752 | 34070 ft | 414 kts | 315° |
| 2026-04-17 09:23 | 24.16023 | 46.80704 | 34060 ft | 416 kts | 315° |
| 2026-04-17 09:24 | 24.20472 | 46.76651 | 34060 ft | 416 kts | 315° |
| 2026-04-17 09:24 | 24.24915 | 46.72599 | 34060 ft | 416 kts | 315° |
| 2026-04-17 09:25 | 24.29334 | 46.68566 | 34079 ft | 416 kts | 315° |
| 2026-04-17 09:25 | 24.33829 | 46.64460 | 34062 ft | 423 kts | 315° |
| 2026-04-17 09:26 | 24.38351 | 46.60323 | 34060 ft | 423 kts | 315° |
| 2026-04-17 09:26 | 24.42114 | 46.56879 | 34053 ft | 423 kts | 315° |
| 2026-04-17 09:27 | 24.46607 | 46.52762 | 34067 ft | 419 kts | 315° |
| 2026-04-17 09:27 | 24.51125 | 46.48619 | 34054 ft | 426 kts | 315° |
| 2026-04-17 09:28 | 24.55677 | 46.44440 | 34065 ft | 426 kts | 315° |
| 2026-04-17 09:28 | 24.60217 | 46.40269 | 34067 ft | 426 kts | 315° |
| 2026-04-17 09:29 | 24.64770 | 46.36082 | 34062 ft | 428 kts | 316° |
| 2026-04-17 09:29 | 24.69344 | 46.31871 | 34067 ft | 429 kts | 316° |
| 2026-04-17 09:30 | 24.73887 | 46.27684 | 34066 ft | 429 kts | 316° |
| 2026-04-17 09:30 | 24.78467 | 46.23459 | 34069 ft | 429 kts | 316° |
| 2026-04-17 09:31 | 24.83054 | 46.19224 | 34061 ft | 432 kts | 316° |
| 2026-04-17 09:31 | 24.87665 | 46.14961 | 34059 ft | 432 kts | 316° |
| 2026-04-17 09:32 | 24.92245 | 46.10724 | 34056 ft | 429 kts | 316° |
| 2026-04-17 09:32 | 24.96820 | 46.06487 | 34062 ft | 429 kts | 316° |
| 2026-04-17 09:33 | 25.01383 | 46.02257 | 34063 ft | 433 kts | 316° |
| 2026-04-17 09:33 | 25.05998 | 45.97974 | 34058 ft | 433 kts | 316° |
| 2026-04-17 09:34 | 25.10596 | 45.93702 | 34056 ft | 431 kts | 315° |
| 2026-04-17 09:34 | 25.15180 | 45.89438 | 34058 ft | 431 kts | 315° |
| 2026-04-17 09:35 | 25.19744 | 45.85190 | 34053 ft | 432 kts | 315° |
| 2026-04-17 09:35 | 25.24339 | 45.80909 | 34048 ft | 432 kts | 315° |
| 2026-04-17 09:36 | 25.28936 | 45.76622 | 34040 ft | 432 kts | 315° |
| 2026-04-17 09:36 | 25.33523 | 45.72338 | 34044 ft | 432 kts | 315° |
| 2026-04-17 09:37 | 25.38119 | 45.68042 | 34042 ft | 432 kts | 315° |
| 2026-04-17 09:37 | 25.42708 | 45.63748 | 34044 ft | 432 kts | 315° |
| 2026-04-17 09:38 | 25.47259 | 45.59485 | 34055 ft | 432 kts | 315° |
| 2026-04-17 09:38 | 25.51834 | 45.55196 | 34038 ft | 429 kts | 315° |
| 2026-04-17 09:39 | 25.56394 | 45.50916 | 34039 ft | 430 kts | 315° |
| 2026-04-17 09:39 | 25.60957 | 45.46630 | 34042 ft | 430 kts | 315° |
| 2026-04-17 09:40 | 25.65521 | 45.42337 | 34036 ft | 430 kts | 315° |
| 2026-04-17 09:40 | 25.70073 | 45.38051 | 34030 ft | 430 kts | 315° |
| 2026-04-17 09:41 | 25.74626 | 45.33760 | 34037 ft | 429 kts | 315° |
| 2026-04-17 09:41 | 25.79175 | 45.29469 | 34034 ft | 429 kts | 315° |
| 2026-04-17 09:42 | 25.83685 | 45.25209 | 34027 ft | 427 kts | 314° |
| 2026-04-17 09:42 | 25.88204 | 45.20937 | 34033 ft | 427 kts | 314° |
| 2026-04-17 09:43 | 25.92722 | 45.16661 | 34027 ft | 426 kts | 314° |
| 2026-04-17 09:43 | 25.97231 | 45.12389 | 34037 ft | 425 kts | 314° |
| 2026-04-17 09:44 | 26.01733 | 45.08120 | 34029 ft | 425 kts | 314° |
| 2026-04-17 09:44 | 26.06229 | 45.03851 | 34031 ft | 425 kts | 314° |
| 2026-04-17 09:45 | 26.10726 | 44.99577 | 34028 ft | 425 kts | 314° |
| 2026-04-17 09:45 | 26.15193 | 44.95327 | 34028 ft | 426 kts | 314° |
| 2026-04-17 09:46 | 26.19706 | 44.91029 | 34024 ft | 427 kts | 314° |
| 2026-04-17 09:46 | 26.24216 | 44.86730 | 34025 ft | 427 kts | 314° |
| 2026-04-17 09:47 | 26.28731 | 44.82421 | 34021 ft | 427 kts | 314° |
| 2026-04-17 09:47 | 26.33233 | 44.78120 | 34023 ft | 427 kts | 314° |
| 2026-04-17 09:48 | 26.37742 | 44.73807 | 34022 ft | 426 kts | 314° |
| 2026-04-17 09:48 | 26.42220 | 44.69520 | 34020 ft | 426 kts | 314° |
| 2026-04-17 09:49 | 26.46723 | 44.65204 | 34021 ft | 427 kts | 314° |
| 2026-04-17 09:49 | 26.51229 | 44.60881 | 34028 ft | 428 kts | 314° |
| 2026-04-17 09:50 | 26.55754 | 44.56534 | 34023 ft | 429 kts | 314° |
| 2026-04-17 09:50 | 26.60283 | 44.52179 | 34021 ft | 429 kts | 314° |
| 2026-04-17 09:51 | 26.64773 | 44.47857 | 34019 ft | 429 kts | 314° |
| 2026-04-17 09:51 | 26.69290 | 44.43505 | 34019 ft | 429 kts | 314° |
| 2026-04-17 09:52 | 26.73805 | 44.39149 | 34022 ft | 429 kts | 314° |
| 2026-04-17 09:52 | 26.78323 | 44.34786 | 34017 ft | 429 kts | 314° |
| 2026-04-17 09:53 | 26.82839 | 44.30419 | 34034 ft | 428 kts | 314° |
| 2026-04-17 09:53 | 26.87353 | 44.26051 | 34023 ft | 429 kts | 314° |
| 2026-04-17 09:54 | 26.91843 | 44.21701 | 34027 ft | 429 kts | 314° |
| 2026-04-17 09:54 | 26.96362 | 44.17318 | 34021 ft | 429 kts | 314° |
| 2026-04-17 09:55 | 27.00877 | 44.12934 | 34020 ft | 429 kts | 314° |
| 2026-04-17 09:55 | 27.05390 | 44.08546 | 34018 ft | 429 kts | 314° |
| 2026-04-17 09:56 | 27.09868 | 44.04188 | 34023 ft | 429 kts | 314° |
| 2026-04-17 09:56 | 27.14375 | 43.99797 | 34024 ft | 429 kts | 314° |
| 2026-04-17 09:57 | 27.18891 | 43.95392 | 34030 ft | 429 kts | 314° |
| 2026-04-17 09:57 | 27.23397 | 43.90992 | 34025 ft | 429 kts | 314° |
| 2026-04-17 09:58 | 27.27900 | 43.86591 | 34012 ft | 429 kts | 314° |
| 2026-04-17 09:58 | 27.32404 | 43.82183 | 34019 ft | 429 kts | 314° |
| 2026-04-17 09:59 | 27.36881 | 43.77798 | 34008 ft | 429 kts | 314° |
| 2026-04-17 09:59 | 27.41381 | 43.73384 | 34006 ft | 429 kts | 314° |
| 2026-04-17 10:00 | 27.45885 | 43.68961 | 34017 ft | 429 kts | 314° |
| 2026-04-17 10:00 | 27.50377 | 43.64545 | 34013 ft | 429 kts | 314° |
| 2026-04-17 10:01 | 27.54878 | 43.60117 | 34016 ft | 429 kts | 314° |
| 2026-04-17 10:01 | 27.59354 | 43.55707 | 34012 ft | 428 kts | 314° |
| 2026-04-17 10:02 | 27.63839 | 43.51282 | 34012 ft | 428 kts | 314° |
| 2026-04-17 10:02 | 27.68299 | 43.46879 | 34011 ft | 428 kts | 314° |
| 2026-04-17 10:03 | 27.72776 | 43.42453 | 34019 ft | 428 kts | 314° |
| 2026-04-17 10:03 | 27.77252 | 43.38023 | 34015 ft | 428 kts | 314° |
| 2026-04-17 10:04 | 27.81729 | 43.33587 | 34016 ft | 428 kts | 314° |
| 2026-04-17 10:04 | 27.86207 | 43.29145 | 34015 ft | 428 kts | 314° |
| 2026-04-17 10:05 | 27.90678 | 43.24705 | 34018 ft | 428 kts | 314° |
| 2026-04-17 10:05 | 27.95130 | 43.20279 | 34019 ft | 428 kts | 314° |
| 2026-04-17 10:06 | 27.99600 | 43.15830 | 34017 ft | 428 kts | 314° |
| 2026-04-17 10:06 | 28.04073 | 43.11372 | 34019 ft | 428 kts | 313° |
| 2026-04-17 10:07 | 28.08543 | 43.06912 | 34019 ft | 428 kts | 313° |
| 2026-04-17 10:07 | 28.12977 | 43.02483 | 34020 ft | 428 kts | 313° |
| 2026-04-17 10:08 | 28.17440 | 42.98021 | 34015 ft | 428 kts | 313° |
| 2026-04-17 10:08 | 28.21903 | 42.93553 | 34018 ft | 428 kts | 313° |
| 2026-04-17 10:09 | 28.26363 | 42.89083 | 34020 ft | 427 kts | 313° |
| 2026-04-17 10:09 | 28.30813 | 42.84618 | 34019 ft | 427 kts | 313° |
| 2026-04-17 10:10 | 28.35259 | 42.80151 | 34017 ft | 427 kts | 313° |
| 2026-04-17 10:11 | 28.41893 | 42.73476 | 34019 ft | 427 kts | 313° |
| 2026-04-17 10:11 | 28.46337 | 42.68999 | 34015 ft | 427 kts | 313° |
| 2026-04-17 10:12 | 28.50777 | 42.64520 | 34015 ft | 427 kts | 313° |
| 2026-04-17 10:12 | 28.55214 | 42.60039 | 34017 ft | 426 kts | 313° |
| 2026-04-17 10:13 | 28.59654 | 42.55550 | 34031 ft | 426 kts | 313° |
| 2026-04-17 10:13 | 28.64084 | 42.51066 | 34014 ft | 425 kts | 313° |
| 2026-04-17 10:14 | 28.68477 | 42.46613 | 34011 ft | 425 kts | 313° |
| 2026-04-17 10:14 | 28.72896 | 42.42130 | 34008 ft | 425 kts | 313° |
| 2026-04-17 10:15 | 28.77306 | 42.37649 | 34014 ft | 425 kts | 313° |
| 2026-04-17 10:15 | 28.81725 | 42.33155 | 34009 ft | 425 kts | 313° |
| 2026-04-17 10:16 | 28.85391 | 42.29422 | 34012 ft | 425 kts | 313° |
| 2026-04-17 10:16 | 28.90550 | 42.24164 | 34007 ft | 425 kts | 313° |
| 2026-04-17 10:17 | 28.94934 | 42.19689 | 34012 ft | 425 kts | 313° |
| 2026-04-17 10:17 | 28.98596 | 42.15946 | 34002 ft | 424 kts | 313° |
| 2026-04-17 10:18 | 29.03734 | 42.10690 | 34000 ft | 424 kts | 313° |
| 2026-04-17 10:18 | 29.07399 | 42.06937 | 33999 ft | 424 kts | 313° |
| 2026-04-17 10:19 | 29.11788 | 42.02437 | 33993 ft | 424 kts | 313° |
| 2026-04-17 10:19 | 29.16185 | 41.97923 | 34004 ft | 424 kts | 313° |
| 2026-04-17 10:20 | 29.20577 | 41.93408 | 33992 ft | 423 kts | 313° |
| 2026-04-17 10:20 | 29.24956 | 41.88902 | 33986 ft | 423 kts | 313° |
| 2026-04-17 10:21 | 29.29311 | 41.84416 | 33987 ft | 423 kts | 313° |
| 2026-04-17 10:21 | 29.33692 | 41.79896 | 33990 ft | 423 kts | 312° |
| 2026-04-17 10:22 | 29.38058 | 41.75387 | 33988 ft | 422 kts | 312° |
| 2026-04-17 10:22 | 29.42420 | 41.70877 | 33989 ft | 422 kts | 312° |
| 2026-04-17 10:23 | 29.46788 | 41.66355 | 33989 ft | 422 kts | 312° |
| 2026-04-17 10:23 | 29.51119 | 41.61865 | 33988 ft | 422 kts | 312° |
| 2026-04-17 10:24 | 29.55480 | 41.57340 | 33985 ft | 422 kts | 312° |
| 2026-04-17 10:24 | 29.59836 | 41.52814 | 33984 ft | 422 kts | 312° |
| 2026-04-17 10:25 | 29.64195 | 41.48279 | 33976 ft | 422 kts | 312° |
| 2026-04-17 10:25 | 29.68549 | 41.43744 | 33986 ft | 422 kts | 312° |
| 2026-04-17 10:26 | 29.72900 | 41.39207 | 33978 ft | 421 kts | 312° |
| 2026-04-17 10:26 | 29.77218 | 41.34698 | 33985 ft | 422 kts | 312° |
| 2026-04-17 10:27 | 29.81590 | 41.30128 | 33974 ft | 422 kts | 312° |
| 2026-04-17 10:27 | 29.85902 | 41.25615 | 33973 ft | 422 kts | 312° |
| 2026-04-17 10:28 | 29.90246 | 41.21062 | 33971 ft | 422 kts | 312° |
| 2026-04-17 10:28 | 29.94589 | 41.16505 | 33970 ft | 422 kts | 312° |
| 2026-04-17 10:29 | 29.98927 | 41.11948 | 33979 ft | 422 kts | 312° |
| 2026-04-17 10:29 | 30.03262 | 41.07388 | 33982 ft | 421 kts | 311° |
| 2026-04-17 10:30 | 30.07594 | 41.02825 | 33974 ft | 422 kts | 311° |
| 2026-04-17 10:30 | 30.11899 | 40.98287 | 33969 ft | 422 kts | 311° |
| 2026-04-17 10:31 | 30.16233 | 40.93711 | 33968 ft | 422 kts | 311° |
| 2026-04-17 10:31 | 30.20563 | 40.89133 | 33970 ft | 422 kts | 311° |
| 2026-04-17 10:32 | 30.24896 | 40.84548 | 33968 ft | 422 kts | 311° |
| 2026-04-17 10:32 | 30.29224 | 40.79962 | 33969 ft | 422 kts | 311° |
| 2026-04-17 10:33 | 30.33556 | 40.75365 | 33973 ft | 422 kts | 311° |
| 2026-04-17 10:33 | 30.37889 | 40.70762 | 33968 ft | 422 kts | 311° |
| 2026-04-17 10:34 | 30.42218 | 40.66157 | 33970 ft | 423 kts | 311° |
| 2026-04-17 10:34 | 30.46555 | 40.61538 | 33968 ft | 423 kts | 311° |
| 2026-04-17 10:35 | 30.50884 | 40.56922 | 33970 ft | 423 kts | 311° |
| 2026-04-17 10:35 | 30.55193 | 40.52321 | 33966 ft | 423 kts | 311° |
| 2026-04-17 10:36 | 30.59532 | 40.47681 | 33965 ft | 423 kts | 311° |
| 2026-04-17 10:36 | 30.63859 | 40.43050 | 33965 ft | 423 kts | 311° |
| 2026-04-17 10:37 | 30.68156 | 40.38444 | 33958 ft | 423 kts | 311° |
| 2026-04-17 10:37 | 30.72487 | 40.33795 | 33962 ft | 423 kts | 311° |
| 2026-04-17 10:38 | 30.76812 | 40.29149 | 33968 ft | 423 kts | 311° |
| 2026-04-17 10:38 | 30.81140 | 40.24492 | 33967 ft | 423 kts | 311° |
| 2026-04-17 10:39 | 30.85458 | 40.19840 | 33956 ft | 424 kts | 311° |
| 2026-04-17 10:39 | 30.89782 | 40.15175 | 33958 ft | 423 kts | 311° |
| 2026-04-17 10:40 | 30.94100 | 40.10511 | 33962 ft | 423 kts | 311° |
| 2026-04-17 10:40 | 30.98393 | 40.05868 | 33952 ft | 423 kts | 311° |
| 2026-04-17 10:41 | 31.02707 | 40.01199 | 33954 ft | 423 kts | 311° |
| 2026-04-17 10:41 | 31.07015 | 39.96529 | 33953 ft | 423 kts | 311° |
| 2026-04-17 10:42 | 31.11331 | 39.91845 | 33964 ft | 423 kts | 311° |
| 2026-04-17 10:42 | 31.15613 | 39.87192 | 33952 ft | 423 kts | 311° |
| 2026-04-17 10:43 | 31.19912 | 39.82514 | 33946 ft | 423 kts | 311° |
| 2026-04-17 10:43 | 31.24217 | 39.77824 | 33945 ft | 423 kts | 311° |
| 2026-04-17 10:44 | 31.28515 | 39.73135 | 33942 ft | 423 kts | 311° |
| 2026-04-17 10:44 | 31.32811 | 39.68442 | 33944 ft | 422 kts | 311° |
| 2026-04-17 10:45 | 31.37109 | 39.63742 | 33942 ft | 422 kts | 311° |
| 2026-04-17 10:45 | 31.41397 | 39.59045 | 33938 ft | 422 kts | 311° |
| 2026-04-17 10:46 | 31.45683 | 39.54345 | 33945 ft | 422 kts | 311° |
| 2026-04-17 10:46 | 31.49972 | 39.49636 | 33942 ft | 422 kts | 311° |
| 2026-04-17 10:47 | 31.54255 | 39.44927 | 33934 ft | 422 kts | 311° |
| 2026-04-17 10:47 | 31.58507 | 39.40247 | 33934 ft | 422 kts | 311° |
| 2026-04-17 10:48 | 31.62789 | 39.35527 | 33934 ft | 422 kts | 311° |
| 2026-04-17 10:48 | 31.67064 | 39.30808 | 33928 ft | 422 kts | 311° |
| 2026-04-17 10:49 | 31.71346 | 39.26075 | 33929 ft | 422 kts | 311° |
| 2026-04-17 10:49 | 31.75591 | 39.21378 | 33926 ft | 421 kts | 311° |
| 2026-04-17 10:50 | 31.79936 | 39.16733 | 33916 ft | 427 kts | 319° |
| 2026-04-17 10:50 | 31.85251 | 39.13436 | 33912 ft | 431 kts | 326° |
| 2026-04-17 10:51 | 31.90597 | 39.10239 | 33927 ft | 430 kts | 326° |
| 2026-04-17 10:51 | 31.95947 | 39.07052 | 33926 ft | 431 kts | 326° |
| 2026-04-17 10:52 | 32.01261 | 39.03884 | 33925 ft | 431 kts | 326° |
| 2026-04-17 10:52 | 32.06623 | 39.00726 | 33920 ft | 431 kts | 326° |
| 2026-04-17 10:53 | 32.11989 | 38.97562 | 33923 ft | 430 kts | 326° |
| 2026-04-17 10:53 | 32.17348 | 38.94397 | 33925 ft | 430 kts | 326° |
| 2026-04-17 10:54 | 32.22706 | 38.91229 | 33917 ft | 430 kts | 326° |
| 2026-04-17 10:54 | 32.28061 | 38.88058 | 33916 ft | 431 kts | 326° |
| 2026-04-17 10:55 | 32.33391 | 38.84898 | 33918 ft | 431 kts | 326° |
| 2026-04-17 10:55 | 32.38756 | 38.81713 | 33913 ft | 432 kts | 326° |
| 2026-04-17 10:56 | 32.44133 | 38.78516 | 33912 ft | 433 kts | 326° |
| 2026-04-17 10:56 | 32.49513 | 38.75314 | 33906 ft | 433 kts | 326° |
| 2026-04-17 10:57 | 32.54894 | 38.72107 | 33895 ft | 433 kts | 326° |
| 2026-04-17 10:57 | 32.60266 | 38.68901 | 33895 ft | 433 kts | 326° |
| 2026-04-17 10:58 | 32.65654 | 38.65683 | 33895 ft | 434 kts | 326° |
| 2026-04-17 10:58 | 32.71052 | 38.62456 | 33893 ft | 438 kts | 326° |
| 2026-04-17 10:59 | 32.76515 | 38.59184 | 33886 ft | 439 kts | 326° |
| 2026-04-17 10:59 | 32.81964 | 38.55917 | 33892 ft | 438 kts | 326° |
| 2026-04-17 11:00 | 32.87417 | 38.52642 | 33891 ft | 438 kts | 326° |
| 2026-04-17 11:00 | 32.92826 | 38.49390 | 33894 ft | 439 kts | 326° |
| 2026-04-17 11:01 | 32.98274 | 38.46098 | 33881 ft | 439 kts | 326° |
| 2026-04-17 11:01 | 33.03703 | 38.42757 | 33881 ft | 439 kts | 326° |
| 2026-04-17 11:02 | 33.09132 | 38.39415 | 33875 ft | 439 kts | 326° |
| 2026-04-17 11:02 | 33.14561 | 38.36073 | 33880 ft | 439 kts | 326° |
| 2026-04-17 11:03 | 33.19988 | 38.32744 | 33869 ft | 438 kts | 326° |
| 2026-04-17 11:03 | 33.25382 | 38.29456 | 33867 ft | 437 kts | 326° |
| 2026-04-17 11:04 | 33.30809 | 38.26148 | 33852 ft | 437 kts | 326° |
| 2026-04-17 11:04 | 33.36235 | 38.22839 | 33865 ft | 437 kts | 326° |
| 2026-04-17 11:05 | 33.41658 | 38.19532 | 33867 ft | 437 kts | 326° |
| 2026-04-17 11:05 | 33.47071 | 38.16286 | 33858 ft | 438 kts | 326° |
| 2026-04-17 11:06 | 33.51532 | 38.13407 | 33834 ft | 426 kts | 314° |
| 2026-04-17 11:06 | 33.54026 | 38.09971 | 33870 ft | 407 kts | 295° |
| 2026-04-17 11:06 | 33.54896 | 38.07948 | 33859 ft | 404 kts | 288° |
| 2026-04-17 11:06 | 33.55932 | 38.03709 | 33791 ft | 397 kts | 276° |
| 2026-04-17 11:07 | 33.56107 | 38.01495 | 33054 ft | 397 kts | 269° |
| 2026-04-17 11:07 | 33.55849 | 37.98165 | 31748 ft | 407 kts | 258° |
| 2026-04-17 11:07 | 33.55032 | 37.94915 | 30523 ft | 418 kts | 248° |
| 2026-04-17 11:07 | 33.53600 | 37.91879 | 29719 ft | 419 kts | 237° |
| 2026-04-17 11:08 | 33.51980 | 37.89018 | 28984 ft | 412 kts | 239° |
| 2026-04-17 11:08 | 33.50439 | 37.86130 | 28206 ft | 410 kts | 239° |
| 2026-04-17 11:08 | 33.48925 | 37.83255 | 27502 ft | 406 kts | 239° |
| 2026-04-17 11:08 | 33.47433 | 37.80398 | 26814 ft | 403 kts | 239° |
| 2026-04-17 11:09 | 33.45945 | 37.77530 | 25825 ft | 407 kts | 239° |
| 2026-04-17 11:09 | 33.44457 | 37.74629 | 25021 ft | 408 kts | 242° |
| 2026-04-17 11:09 | 33.43475 | 37.71463 | 24263 ft | 407 kts | 258° |
| 2026-04-17 11:10 | 33.42986 | 37.64757 | 22993 ft | 401 kts | 264° |
| 2026-04-17 11:10 | 33.42792 | 37.61427 | 22299 ft | 398 kts | 264° |
| 2026-04-17 11:10 | 33.42612 | 37.58138 | 21667 ft | 395 kts | 264° |
| 2026-04-17 11:10 | 33.42439 | 37.54864 | 21055 ft | 392 kts | 264° |
| 2026-04-17 11:11 | 33.42270 | 37.51624 | 20455 ft | 389 kts | 264° |
| 2026-04-17 11:11 | 33.42103 | 37.48407 | 19860 ft | 386 kts | 264° |
| 2026-04-17 11:11 | 33.41937 | 37.45245 | 19282 ft | 384 kts | 263° |
| 2026-04-17 11:11 | 33.41771 | 37.42056 | 18705 ft | 382 kts | 263° |
| 2026-04-17 11:12 | 33.41604 | 37.38890 | 18135 ft | 380 kts | 263° |
| 2026-04-17 11:12 | 33.41437 | 37.35736 | 17507 ft | 379 kts | 263° |
| 2026-04-17 11:12 | 33.41270 | 37.32601 | 16935 ft | 376 kts | 263° |
| 2026-04-17 11:12 | 33.41104 | 37.29489 | 16384 ft | 373 kts | 263° |
| 2026-04-17 11:13 | 33.40938 | 37.26397 | 15848 ft | 371 kts | 263° |
| 2026-04-17 11:13 | 33.40772 | 37.23327 | 15330 ft | 368 kts | 263° |
| 2026-04-17 11:13 | 33.40607 | 37.20278 | 14812 ft | 367 kts | 263° |
| 2026-04-17 11:13 | 33.40442 | 37.17241 | 14305 ft | 365 kts | 263° |
| 2026-04-17 11:14 | 33.40276 | 37.14213 | 13806 ft | 363 kts | 263° |
| 2026-04-17 11:14 | 33.40111 | 37.11210 | 13259 ft | 362 kts | 263° |
| 2026-04-17 11:14 | 33.39946 | 37.08205 | 12725 ft | 359 kts | 263° |
| 2026-04-17 11:14 | 33.39782 | 37.05242 | 12249 ft | 356 kts | 263° |
| 2026-04-17 11:15 | 33.39618 | 37.02307 | 11868 ft | 351 kts | 263° |
| 2026-04-17 11:15 | 33.39456 | 36.99413 | 11472 ft | 346 kts | 263° |
| 2026-04-17 11:15 | 33.39298 | 36.96585 | 11291 ft | 335 kts | 262° |
| 2026-04-17 11:15 | 33.39145 | 36.93871 | 11116 ft | 326 kts | 262° |
| 2026-04-17 11:16 | 33.38994 | 36.91212 | 10931 ft | 317 kts | 262° |
| 2026-04-17 11:16 | 33.38847 | 36.88615 | 10760 ft | 308 kts | 262° |
| 2026-04-17 11:16 | 33.38704 | 36.86089 | 10601 ft | 299 kts | 262° |
| 2026-04-17 11:16 | 33.38564 | 36.83640 | 10443 ft | 290 kts | 261° |
| 2026-04-17 11:17 | 33.38432 | 36.81261 | 10281 ft | 283 kts | 261° |
| 2026-04-17 11:17 | 33.38304 | 36.78942 | 10141 ft | 275 kts | 261° |
| 2026-04-17 11:17 | 33.38179 | 36.76698 | 9961 ft | 268 kts | 261° |
| 2026-04-17 11:17 | 33.38055 | 36.74473 | 9661 ft | 268 kts | 261° |
| 2026-04-17 11:18 | 33.37934 | 36.72282 | 9327 ft | 267 kts | 261° |
| 2026-04-17 11:18 | 33.37811 | 36.70065 | 9003 ft | 266 kts | 261° |
| 2026-04-17 11:18 | 33.37686 | 36.67859 | 8691 ft | 265 kts | 261° |
| 2026-04-17 11:18 | 33.37562 | 36.65660 | 8383 ft | 264 kts | 261° |
| 2026-04-17 11:19 | 33.37440 | 36.63480 | 8075 ft | 263 kts | 262° |
| 2026-04-17 11:19 | 33.37316 | 36.61303 | 7787 ft | 261 kts | 261° |
| 2026-04-17 11:19 | 33.37193 | 36.59141 | 7503 ft | 260 kts | 261° |
| 2026-04-17 11:19 | 33.37070 | 36.56982 | 7201 ft | 260 kts | 261° |
| 2026-04-17 11:20 | 33.36947 | 36.54823 | 6962 ft | 259 kts | 262° |
| 2026-04-17 11:20 | 33.36823 | 36.52673 | 6669 ft | 259 kts | 261° |
| 2026-04-17 11:20 | 33.36700 | 36.50531 | 6376 ft | 258 kts | 261° |
| 2026-04-17 11:20 | 33.36572 | 36.48419 | 6151 ft | 254 kts | 258° |
| 2026-04-17 11:21 | 33.35998 | 36.46515 | 5947 ft | 238 kts | 231° |
| 2026-04-17 11:21 | 33.34985 | 36.45015 | 5838 ft | 227 kts | 227° |
| 2026-04-17 11:21 | 33.33967 | 36.43630 | 5724 ft | 216 kts | 219° |
| 2026-04-17 11:21 | 33.32743 | 36.42689 | 5560 ft | 206 kts | 198° |
| 2026-04-17 11:22 | 33.31347 | 36.42361 | 5460 ft | 202 kts | 181° |
| 2026-04-17 11:22 | 33.29979 | 36.42293 | 5390 ft | 192 kts | 182° |
| 2026-04-17 11:22 | 33.28685 | 36.42205 | 5297 ft | 180 kts | 182° |
| 2026-04-17 11:22 | 33.27460 | 36.42115 | 5135 ft | 173 kts | 181° |
| 2026-04-17 11:23 | 33.26309 | 36.41845 | 4949 ft | 168 kts | 200° |
| 2026-04-17 11:23 | 33.25393 | 36.40966 | 4843 ft | 176 kts | 233° |
| 2026-04-17 11:23 | 33.25089 | 36.39527 | 4769 ft | 189 kts | 271° |
| 2026-04-17 11:23 | 33.25627 | 36.38078 | 4647 ft | 196 kts | 315° |
| 2026-04-17 11:24 | 33.26793 | 36.37373 | 4621 ft | 191 kts | 358° |
| 2026-04-17 11:24 | 33.28112 | 36.37431 | 4699 ft | 192 kts | 6° |
| 2026-04-17 11:24 | 33.29404 | 36.37748 | 4495 ft | 187 kts | 36° |
| 2026-04-17 11:24 | 33.30357 | 36.38731 | 4316 ft | 179 kts | 50° |
| 2026-04-17 11:25 | 33.31194 | 36.39827 | 4129 ft | 175 kts | 51° |
| 2026-04-17 11:25 | 33.31985 | 36.40890 | 3910 ft | 168 kts | 52° |
| 2026-04-17 11:25 | 33.32748 | 36.41917 | 3698 ft | 164 kts | 50° |
| 2026-04-17 11:25 | 33.33506 | 36.42926 | 3514 ft | 162 kts | 50° |
| 2026-04-17 11:26 | 33.34242 | 36.43912 | 3308 ft | 158 kts | 50° |
| 2026-04-17 11:26 | 33.34949 | 36.44857 | 3157 ft | 148 kts | 49° |
| 2026-04-17 11:26 | 33.35614 | 36.45751 | 2944 ft | 141 kts | 50° |
| 2026-04-17 11:26 | 33.36269 | 36.46628 | 2756 ft | 141 kts | 50° |
| 2026-04-17 11:27 | 33.36929 | 36.47511 | 2504 ft | 143 kts | 51° |
| 2026-04-17 11:27 | 33.37592 | 36.48397 | 2376 ft | 142 kts | 52° |
| 2026-04-17 11:27 | 33.38255 | 36.49281 | 2132 ft | 145 kts | 53° |
| 2026-04-17 11:27 | 33.38919 | 36.50172 | 2005 ft | 134 kts | 50° |
| 2026-04-17 11:28 | 33.39473 | 36.50920 | 2005 ft | 104 kts | 48° |
| 2026-04-17 11:28 | 33.39873 | 36.51457 | 2003 ft | 72 kts | 48° |
| 2026-04-17 11:28 | 33.40188 | 36.51880 | 2005 ft | 65 kts | 48° |
| 2026-04-17 11:28 | 33.40442 | 36.52221 | 2002 ft | 39 kts | 49° |
| 2026-04-17 11:29 | 33.40583 | 36.52410 | 2000 ft | 17 kts | 43° |
| 2026-04-17 11:29 | 33.40702 | 36.52432 | 2001 ft | 19 kts | 344° |
| 2026-04-17 11:29 | 33.40798 | 36.52350 | 2003 ft | 9 kts | 319° |
| 2026-04-17 11:29 | 33.40854 | 36.52291 | 2003 ft | 12 kts | 319° |
| 2026-04-17 11:30 | 33.40925 | 36.52218 | 2003 ft | 15 kts | 319° |
| 2026-04-17 11:30 | 33.41007 | 36.52131 | 2003 ft | 17 kts | 319° |
| 2026-04-17 11:30 | 33.41099 | 36.52033 | 2001 ft | 19 kts | 318° |
| 2026-04-17 11:30 | 33.41169 | 36.51934 | 2002 ft | 14 kts | 276° |
| 2026-04-17 11:31 | 33.41176 | 36.51807 | 2002 ft | 16 kts | 273° |
| 2026-04-17 11:31 | 33.41182 | 36.51672 | 2002 ft | 13 kts | 273° |
| 2026-04-17 11:31 | 33.41205 | 36.51558 | 2001 ft | 15 kts | 316° |
| 2026-04-17 11:31 | 33.41267 | 36.51493 | 2001 ft | 11 kts | 319° |
| 2026-04-17 11:32 | 33.41327 | 36.51430 | 2002 ft | 10 kts | 319° |
| 2026-04-17 11:32 | 33.41368 | 36.51442 | 2002 ft | 7 kts | 77° |
| 2026-04-17 11:32 | 33.41366 | 36.51507 | 2002 ft | 9 kts | 93° |
| 2026-04-17 11:32 | 33.41365 | 36.51542 | 2002 ft | 0 kts | 92° |